sensor_id;sensor_type;location;lat;lon;timestamp;P1;P2;P0
64631;PMS5003;58358;50.936;0.246;2023-04-01T00:00:20;8;6;
64631;PMS5003;58358;50.936;0.246;2023-04-01T00:02:45;7;7;
64631;PMS5003;58358;50.936;0.246;2023-04-01T00:05:11;8;8;
64631;PMS5003;58358;50.936;0.246;2023-04-01T00:07:36;6;5;
64631;PMS5003;58358;50.936;0.246;2023-04-01T00:10:03;6;6;
64631;PMS5003;58358;50.936;0.246;2023-04-01T00:12:28;6;6;
64631;PMS5003;58358;50.936;0.246;2023-04-01T00:14:54;8;8;
64631;PMS5003;58358;50.936;0.246;2023-04-01T00:17:19;6;6;
64631;PMS5003;58358;50.936;0.246;2023-04-01T00:19:45;8;7;
64631;PMS5003;58358;50.936;0.246;2023-04-01T00:22:11;10;10;
64631;PMS5003;58358;50.936;0.246;2023-04-01T00:24:36;10;10;
64631;PMS5003;58358;50.936;0.246;2023-04-01T00:27:02;10;9;
64631;PMS5003;58358;50.936;0.246;2023-04-01T00:29:28;9;9;
64631;PMS5003;58358;50.936;0.246;2023-04-01T00:31:53;8;8;
64631;PMS5003;58358;50.936;0.246;2023-04-01T00:34:19;9;9;
64631;PMS5003;58358;50.936;0.246;2023-04-01T00:36:45;10;9;
64631;PMS5003;58358;50.936;0.246;2023-04-01T00:39:11;7;7;
64631;PMS5003;58358;50.936;0.246;2023-04-01T00:41:36;10;10;
64631;PMS5003;58358;50.936;0.246;2023-04-01T00:46:28;11;11;
64631;PMS5003;58358;50.936;0.246;2023-04-01T00:48:54;11;10;
64631;PMS5003;58358;50.936;0.246;2023-04-01T00:51:20;13;13;
64631;PMS5003;58358;50.936;0.246;2023-04-01T00:53:45;10;8;
64631;PMS5003;58358;50.936;0.246;2023-04-01T00:56:10;13;10;
64631;PMS5003;58358;50.936;0.246;2023-04-01T00:58:37;9;9;
64631;PMS5003;58358;50.936;0.246;2023-04-01T01:01:01;11;10;
64631;PMS5003;58358;50.936;0.246;2023-04-01T01:03:27;12;12;
64631;PMS5003;58358;50.936;0.246;2023-04-01T01:06:01;11;11;
64631;PMS5003;58358;50.936;0.246;2023-04-01T01:08:20;10;8;
64631;PMS5003;58358;50.936;0.246;2023-04-01T01:10:44;10;10;
64631;PMS5003;58358;50.936;0.246;2023-04-01T01:13:10;12;8;
64631;PMS5003;58358;50.936;0.246;2023-04-01T01:15:36;9;9;
64631;PMS5003;58358;50.936;0.246;2023-04-01T01:18:03;13;9;
64631;PMS5003;58358;50.936;0.246;2023-04-01T01:20:33;12;10;
64631;PMS5003;58358;50.936;0.246;2023-04-01T01:22:52;12;12;
64631;PMS5003;58358;50.936;0.246;2023-04-01T01:25:18;11;10;
64631;PMS5003;58358;50.936;0.246;2023-04-01T01:27:45;13;11;
64631;PMS5003;58358;50.936;0.246;2023-04-01T01:30:10;12;10;
64631;PMS5003;58358;50.936;0.246;2023-04-01T01:32:38;12;10;
64631;PMS5003;58358;50.936;0.246;2023-04-01T01:37:25;9;9;
64631;PMS5003;58358;50.936;0.246;2023-04-01T01:39:52;13;12;
64631;PMS5003;58358;50.936;0.246;2023-04-01T01:42:17;8;8;
64631;PMS5003;58358;50.936;0.246;2023-04-01T01:44:43;11;11;
64631;PMS5003;58358;50.936;0.246;2023-04-01T01:47:08;10;10;
64631;PMS5003;58358;50.936;0.246;2023-04-01T01:49:34;8;8;
64631;PMS5003;58358;50.936;0.246;2023-04-01T01:51:59;8;8;
64631;PMS5003;58358;50.936;0.246;2023-04-01T01:54:25;10;10;
64631;PMS5003;58358;50.936;0.246;2023-04-01T01:56:52;10;10;
64631;PMS5003;58358;50.936;0.246;2023-04-01T01:59:17;13;11;
64631;PMS5003;58358;50.936;0.246;2023-04-01T02:01:43;11;10;
64631;PMS5003;58358;50.936;0.246;2023-04-01T02:04:08;10;10;
64631;PMS5003;58358;50.936;0.246;2023-04-01T02:06:34;9;9;
64631;PMS5003;58358;50.936;0.246;2023-04-01T02:09:00;15;11;
64631;PMS5003;58358;50.936;0.246;2023-04-01T02:11:26;11;10;
64631;PMS5003;58358;50.936;0.246;2023-04-01T02:13:52;10;10;
64631;PMS5003;58358;50.936;0.246;2023-04-01T02:16:18;9;9;
64631;PMS5003;58358;50.936;0.246;2023-04-01T02:18:41;10;10;
64631;PMS5003;58358;50.936;0.246;2023-04-01T02:21:07;10;10;
64631;PMS5003;58358;50.936;0.246;2023-04-01T02:23:33;9;9;
64631;PMS5003;58358;50.936;0.246;2023-04-01T02:25:59;12;11;
64631;PMS5003;58358;50.936;0.246;2023-04-01T02:28:24;13;13;
64631;PMS5003;58358;50.936;0.246;2023-04-01T02:30:49;12;12;
64631;PMS5003;58358;50.936;0.246;2023-04-01T02:33:15;12;11;
64631;PMS5003;58358;50.936;0.246;2023-04-01T02:35:41;13;13;
64631;PMS5003;58358;50.936;0.246;2023-04-01T02:38:07;12;10;
64631;PMS5003;58358;50.936;0.246;2023-04-01T02:42:58;17;16;
64631;PMS5003;58358;50.936;0.246;2023-04-01T02:45:24;13;13;
64631;PMS5003;58358;50.936;0.246;2023-04-01T02:47:49;14;12;
64631;PMS5003;58358;50.936;0.246;2023-04-01T02:50:15;15;14;
64631;PMS5003;58358;50.936;0.246;2023-04-01T02:52:40;11;11;
64631;PMS5003;58358;50.936;0.246;2023-04-01T02:55:06;16;14;
64631;PMS5003;58358;50.936;0.246;2023-04-01T02:57:32;14;14;
64631;PMS5003;58358;50.936;0.246;2023-04-01T02:59:58;14;12;
64631;PMS5003;58358;50.936;0.246;2023-04-01T03:02:23;12;12;
64631;PMS5003;58358;50.936;0.246;2023-04-01T03:04:49;10;10;
64631;PMS5003;58358;50.936;0.246;2023-04-01T03:07:14;10;10;
64631;PMS5003;58358;50.936;0.246;2023-04-01T03:09:40;13;12;
64631;PMS5003;58358;50.936;0.246;2023-04-01T03:12:06;13;12;
64631;PMS5003;58358;50.936;0.246;2023-04-01T03:14:31;11;11;
64631;PMS5003;58358;50.936;0.246;2023-04-01T03:16:56;16;13;
64631;PMS5003;58358;50.936;0.246;2023-04-01T03:19:22;14;13;
64631;PMS5003;58358;50.936;0.246;2023-04-01T03:21:48;11;11;
64631;PMS5003;58358;50.936;0.246;2023-04-01T03:24:13;12;12;
64631;PMS5003;58358;50.936;0.246;2023-04-01T03:26:39;12;12;
64631;PMS5003;58358;50.936;0.246;2023-04-01T03:29:05;12;12;
64631;PMS5003;58358;50.936;0.246;2023-04-01T03:31:31;16;15;
64631;PMS5003;58358;50.936;0.246;2023-04-01T03:33:56;10;9;
64631;PMS5003;58358;50.936;0.246;2023-04-01T03:36:22;10;9;
64631;PMS5003;58358;50.936;0.246;2023-04-01T03:38:48;10;9;
64631;PMS5003;58358;50.936;0.246;2023-04-01T03:41:14;9;9;
64631;PMS5003;58358;50.936;0.246;2023-04-01T03:43:39;10;8;
64631;PMS5003;58358;50.936;0.246;2023-04-01T03:46:05;10;10;
64631;PMS5003;58358;50.936;0.246;2023-04-01T03:48:30;10;8;
64631;PMS5003;58358;50.936;0.246;2023-04-01T03:50:56;10;10;
64631;PMS5003;58358;50.936;0.246;2023-04-01T03:53:22;8;8;
64631;PMS5003;58358;50.936;0.246;2023-04-01T03:55:47;9;8;
64631;PMS5003;58358;50.936;0.246;2023-04-01T03:58:13;10;9;
64631;PMS5003;58358;50.936;0.246;2023-04-01T04:00:39;8;6;
64631;PMS5003;58358;50.936;0.246;2023-04-01T04:03:05;8;7;
64631;PMS5003;58358;50.936;0.246;2023-04-01T04:05:30;5;5;
64631;PMS5003;58358;50.936;0.246;2023-04-01T04:07:56;6;6;
64631;PMS5003;58358;50.936;0.246;2023-04-01T04:10:22;8;8;
64631;PMS5003;58358;50.936;0.246;2023-04-01T04:12:48;10;10;
64631;PMS5003;58358;50.936;0.246;2023-04-01T04:15:13;8;7;
64631;PMS5003;58358;50.936;0.246;2023-04-01T04:17:39;7;7;
64631;PMS5003;58358;50.936;0.246;2023-04-01T04:20:05;8;8;
64631;PMS5003;58358;50.936;0.246;2023-04-01T04:22:30;7;7;
64631;PMS5003;58358;50.936;0.246;2023-04-01T04:24:56;10;8;
64631;PMS5003;58358;50.936;0.246;2023-04-01T04:27:22;6;6;
64631;PMS5003;58358;50.936;0.246;2023-04-01T04:29:48;7;7;
64631;PMS5003;58358;50.936;0.246;2023-04-01T04:32:13;6;4;
64631;PMS5003;58358;50.936;0.246;2023-04-01T04:34:39;6;6;
64631;PMS5003;58358;50.936;0.246;2023-04-01T04:37:05;8;8;
64631;PMS5003;58358;50.936;0.246;2023-04-01T04:39:31;7;7;
64631;PMS5003;58358;50.936;0.246;2023-04-01T04:41:57;7;7;
64631;PMS5003;58358;50.936;0.246;2023-04-01T04:44:22;6;6;
64631;PMS5003;58358;50.936;0.246;2023-04-01T04:46:48;4;4;
64631;PMS5003;58358;50.936;0.246;2023-04-01T04:49:14;6;5;
64631;PMS5003;58358;50.936;0.246;2023-04-01T04:51:39;3;3;
64631;PMS5003;58358;50.936;0.246;2023-04-01T04:54:06;4;4;
64631;PMS5003;58358;50.936;0.246;2023-04-01T04:56:31;3;3;
64631;PMS5003;58358;50.936;0.246;2023-04-01T04:58:57;6;6;
64631;PMS5003;58358;50.936;0.246;2023-04-01T05:01:23;7;7;
64631;PMS5003;58358;50.936;0.246;2023-04-01T05:03:48;5;5;
64631;PMS5003;58358;50.936;0.246;2023-04-01T05:06:15;6;5;
64631;PMS5003;58358;50.936;0.246;2023-04-01T05:08:40;8;8;
64631;PMS5003;58358;50.936;0.246;2023-04-01T05:11:07;8;6;
64631;PMS5003;58358;50.936;0.246;2023-04-01T05:13:31;7;7;
64631;PMS5003;58358;50.936;0.246;2023-04-01T05:15:57;7;7;
64631;PMS5003;58358;50.936;0.246;2023-04-01T05:18:23;9;9;
64631;PMS5003;58358;50.936;0.246;2023-04-01T05:20:49;8;8;
64631;PMS5003;58358;50.936;0.246;2023-04-01T05:23:14;7;7;
64631;PMS5003;58358;50.936;0.246;2023-04-01T05:25:39;11;9;
64631;PMS5003;58358;50.936;0.246;2023-04-01T05:28:05;9;6;
64631;PMS5003;58358;50.936;0.246;2023-04-01T05:30:30;7;7;
64631;PMS5003;58358;50.936;0.246;2023-04-01T05:32:56;6;6;
64631;PMS5003;58358;50.936;0.246;2023-04-01T05:35:23;7;7;
64631;PMS5003;58358;50.936;0.246;2023-04-01T05:37:48;7;7;
64631;PMS5003;58358;50.936;0.246;2023-04-01T05:40:14;8;6;
64631;PMS5003;58358;50.936;0.246;2023-04-01T05:42:39;5;5;
64631;PMS5003;58358;50.936;0.246;2023-04-01T05:45:05;7;7;
64631;PMS5003;58358;50.936;0.246;2023-04-01T05:47:30;8;8;
64631;PMS5003;58358;50.936;0.246;2023-04-01T05:49:56;8;8;
64631;PMS5003;58358;50.936;0.246;2023-04-01T05:52:22;7;7;
64631;PMS5003;58358;50.936;0.246;2023-04-01T05:54:47;9;9;
64631;PMS5003;58358;50.936;0.246;2023-04-01T05:57:13;8;8;
64631;PMS5003;58358;50.936;0.246;2023-04-01T05:59:39;8;8;
64631;PMS5003;58358;50.936;0.246;2023-04-01T06:02:05;11;10;
64631;PMS5003;58358;50.936;0.246;2023-04-01T06:04:32;8;8;
64631;PMS5003;58358;50.936;0.246;2023-04-01T06:06:56;7;7;
64631;PMS5003;58358;50.936;0.246;2023-04-01T06:09:24;9;9;
64631;PMS5003;58358;50.936;0.246;2023-04-01T06:11:54;7;7;
64631;PMS5003;58358;50.936;0.246;2023-04-01T06:14:17;5;5;
64631;PMS5003;58358;50.936;0.246;2023-04-01T06:16:44;7;7;
64631;PMS5003;58358;50.936;0.246;2023-04-01T06:19:08;8;8;
64631;PMS5003;58358;50.936;0.246;2023-04-01T06:21:34;8;8;
64631;PMS5003;58358;50.936;0.246;2023-04-01T06:23:58;8;6;
64631;PMS5003;58358;50.936;0.246;2023-04-01T06:26:24;10;10;
64631;PMS5003;58358;50.936;0.246;2023-04-01T06:28:51;8;6;
64631;PMS5003;58358;50.936;0.246;2023-04-01T06:31:18;8;8;
64631;PMS5003;58358;50.936;0.246;2023-04-01T06:33:43;6;6;
64631;PMS5003;58358;50.936;0.246;2023-04-01T06:36:09;11;11;
64631;PMS5003;58358;50.936;0.246;2023-04-01T06:38:41;8;8;
64631;PMS5003;58358;50.936;0.246;2023-04-01T06:41:00;6;6;
64631;PMS5003;58358;50.936;0.246;2023-04-01T06:43:23;9;9;
64631;PMS5003;58358;50.936;0.246;2023-04-01T06:45:48;8;8;
64631;PMS5003;58358;50.936;0.246;2023-04-01T06:48:17;7;7;
64631;PMS5003;58358;50.936;0.246;2023-04-01T06:50:40;5;5;
64631;PMS5003;58358;50.936;0.246;2023-04-01T06:53:06;7;7;
64631;PMS5003;58358;50.936;0.246;2023-04-01T06:55:32;7;6;
64631;PMS5003;58358;50.936;0.246;2023-04-01T06:57:56;9;9;
64631;PMS5003;58358;50.936;0.246;2023-04-01T07:00:27;7;7;
64631;PMS5003;58358;50.936;0.246;2023-04-01T07:02:48;10;8;
64631;PMS5003;58358;50.936;0.246;2023-04-01T07:05:14;7;7;
64631;PMS5003;58358;50.936;0.246;2023-04-01T07:07:39;8;8;
64631;PMS5003;58358;50.936;0.246;2023-04-01T07:10:06;10;10;
64631;PMS5003;58358;50.936;0.246;2023-04-01T07:12:33;9;9;
64631;PMS5003;58358;50.936;0.246;2023-04-01T07:14:56;16;16;
64631;PMS5003;58358;50.936;0.246;2023-04-01T07:17:22;8;8;
64631;PMS5003;58358;50.936;0.246;2023-04-01T07:19:47;9;8;
64631;PMS5003;58358;50.936;0.246;2023-04-01T07:22:16;8;8;
64631;PMS5003;58358;50.936;0.246;2023-04-01T07:24:39;11;11;
64631;PMS5003;58358;50.936;0.246;2023-04-01T07:27:05;7;7;
64631;PMS5003;58358;50.936;0.246;2023-04-01T07:29:29;7;7;
64631;PMS5003;58358;50.936;0.246;2023-04-01T07:32:00;6;6;
64631;PMS5003;58358;50.936;0.246;2023-04-01T07:34:23;7;7;
64631;PMS5003;58358;50.936;0.246;2023-04-01T07:36:48;9;6;
64631;PMS5003;58358;50.936;0.246;2023-04-01T07:39:17;6;5;
64631;PMS5003;58358;50.936;0.246;2023-04-01T07:41:40;5;5;
64631;PMS5003;58358;50.936;0.246;2023-04-01T07:44:06;7;5;
64631;PMS5003;58358;50.936;0.246;2023-04-01T07:46:34;6;4;
64631;PMS5003;58358;50.936;0.246;2023-04-01T07:48:57;6;5;
64631;PMS5003;58358;50.936;0.246;2023-04-01T07:51:22;5;5;
64631;PMS5003;58358;50.936;0.246;2023-04-01T07:53:48;4;4;
64631;PMS5003;58358;50.936;0.246;2023-04-01T07:56:14;6;5;
64631;PMS5003;58358;50.936;0.246;2023-04-01T07:58:42;5;5;
64631;PMS5003;58358;50.936;0.246;2023-04-01T08:01:05;5;5;
64631;PMS5003;58358;50.936;0.246;2023-04-01T08:03:33;10;9;
64631;PMS5003;58358;50.936;0.246;2023-04-01T08:05:57;6;5;
64631;PMS5003;58358;50.936;0.246;2023-04-01T08:08:25;5;5;
64631;PMS5003;58358;50.936;0.246;2023-04-01T08:10:48;6;4;
64631;PMS5003;58358;50.936;0.246;2023-04-01T08:13:14;3;3;
64631;PMS5003;58358;50.936;0.246;2023-04-01T08:15:40;8;7;
64631;PMS5003;58358;50.936;0.246;2023-04-01T08:18:07;4;4;
64631;PMS5003;58358;50.936;0.246;2023-04-01T08:20:32;6;6;
64631;PMS5003;58358;50.936;0.246;2023-04-01T08:22:57;5;5;
64631;PMS5003;58358;50.936;0.246;2023-04-01T08:25:24;8;5;
64631;PMS5003;58358;50.936;0.246;2023-04-01T08:27:48;9;7;
64631;PMS5003;58358;50.936;0.246;2023-04-01T08:30:17;9;9;
64631;PMS5003;58358;50.936;0.246;2023-04-01T08:32:39;5;5;
64631;PMS5003;58358;50.936;0.246;2023-04-01T08:35:07;7;7;
64631;PMS5003;58358;50.936;0.246;2023-04-01T08:37:31;6;6;
64631;PMS5003;58358;50.936;0.246;2023-04-01T08:39:57;7;7;
64631;PMS5003;58358;50.936;0.246;2023-04-01T08:42:27;14;12;
64631;PMS5003;58358;50.936;0.246;2023-04-01T08:49:44;9;7;
64631;PMS5003;58358;50.936;0.246;2023-04-01T08:52:10;5;5;
64631;PMS5003;58358;50.936;0.246;2023-04-01T08:54:35;4;4;
64631;PMS5003;58358;50.936;0.246;2023-04-01T08:56:57;7;6;
64631;PMS5003;58358;50.936;0.246;2023-04-01T08:59:26;6;5;
64631;PMS5003;58358;50.936;0.246;2023-04-01T09:01:55;5;5;
64631;PMS5003;58358;50.936;0.246;2023-04-01T09:04:19;4;4;
64631;PMS5003;58358;50.936;0.246;2023-04-01T09:06:40;5;5;
64631;PMS5003;58358;50.936;0.246;2023-04-01T09:11:33;7;7;
64631;PMS5003;58358;50.936;0.246;2023-04-01T09:14:00;5;5;
64631;PMS5003;58358;50.936;0.246;2023-04-01T09:16:23;6;6;
64631;PMS5003;58358;50.936;0.246;2023-04-01T09:18:51;6;6;
64631;PMS5003;58358;50.936;0.246;2023-04-01T09:21:22;4;4;
64631;PMS5003;58358;50.936;0.246;2023-04-01T09:23:42;6;6;
64631;PMS5003;58358;50.936;0.246;2023-04-01T09:26:08;7;5;
64631;PMS5003;58358;50.936;0.246;2023-04-01T09:28:33;7;5;
64631;PMS5003;58358;50.936;0.246;2023-04-01T09:31:04;7;7;
64631;PMS5003;58358;50.936;0.246;2023-04-01T09:35:48;6;6;
64631;PMS5003;58358;50.936;0.246;2023-04-01T09:40:42;14;12;
64631;PMS5003;58358;50.936;0.246;2023-04-01T09:48:00;10;10;
64631;PMS5003;58358;50.936;0.246;2023-04-01T09:50:28;8;8;
64631;PMS5003;58358;50.936;0.246;2023-04-01T09:52:48;5;5;
64631;PMS5003;58358;50.936;0.246;2023-04-01T09:55:19;8;8;
64631;PMS5003;58358;50.936;0.246;2023-04-01T10:00:10;7;7;
64631;PMS5003;58358;50.936;0.246;2023-04-01T10:07:31;6;6;
64631;PMS5003;58358;50.936;0.246;2023-04-01T10:12:17;10;8;
64631;PMS5003;58358;50.936;0.246;2023-04-01T10:21:57;11;9;
64631;PMS5003;58358;50.936;0.246;2023-04-01T10:24:25;9;9;
64631;PMS5003;58358;50.936;0.246;2023-04-01T10:26:50;11;9;
64631;PMS5003;58358;50.936;0.246;2023-04-01T10:29:17;10;10;
64631;PMS5003;58358;50.936;0.246;2023-04-01T10:31:42;9;9;
64631;PMS5003;58358;50.936;0.246;2023-04-01T10:34:05;10;10;
64631;PMS5003;58358;50.936;0.246;2023-04-01T10:39:04;7;7;
64631;PMS5003;58358;50.936;0.246;2023-04-01T10:46:16;8;8;
64631;PMS5003;58358;50.936;0.246;2023-04-01T10:51:12;7;7;
64631;PMS5003;58358;50.936;0.246;2023-04-01T10:53:33;7;7;
64631;PMS5003;58358;50.936;0.246;2023-04-01T11:13:02;9;8;
64631;PMS5003;58358;50.936;0.246;2023-04-01T11:15:24;8;7;
64631;PMS5003;58358;50.936;0.246;2023-04-01T11:20:16;12;11;
64631;PMS5003;58358;50.936;0.246;2023-04-01T11:22:40;9;9;
64631;PMS5003;58358;50.936;0.246;2023-04-01T11:25:09;10;10;
64631;PMS5003;58358;50.936;0.246;2023-04-01T11:27:36;7;7;
64631;PMS5003;58358;50.936;0.246;2023-04-01T11:29:58;8;7;
64631;PMS5003;58358;50.936;0.246;2023-04-01T11:32:21;8;7;
64631;PMS5003;58358;50.936;0.246;2023-04-01T11:34:49;8;8;
64631;PMS5003;58358;50.936;0.246;2023-04-01T11:37:14;6;6;
64631;PMS5003;58358;50.936;0.246;2023-04-01T11:39:38;7;6;
64631;PMS5003;58358;50.936;0.246;2023-04-01T11:42:06;7;7;
64631;PMS5003;58358;50.936;0.246;2023-04-01T11:44:27;7;7;
64631;PMS5003;58358;50.936;0.246;2023-04-01T11:46:59;6;6;
64631;PMS5003;58358;50.936;0.246;2023-04-01T11:49:24;8;6;
64631;PMS5003;58358;50.936;0.246;2023-04-01T11:51:57;5;5;
64631;PMS5003;58358;50.936;0.246;2023-04-01T11:54:13;5;5;
64631;PMS5003;58358;50.936;0.246;2023-04-01T11:56:42;6;5;
64631;PMS5003;58358;50.936;0.246;2023-04-01T12:01:29;9;9;
64631;PMS5003;58358;50.936;0.246;2023-04-01T12:06:19;7;7;
64631;PMS5003;58358;50.936;0.246;2023-04-01T12:08:45;7;7;
64631;PMS5003;58358;50.936;0.246;2023-04-01T12:11:10;7;7;
64631;PMS5003;58358;50.936;0.246;2023-04-01T12:13:37;9;9;
64631;PMS5003;58358;50.936;0.246;2023-04-01T12:16:07;9;9;
64631;PMS5003;58358;50.936;0.246;2023-04-01T12:18:27;10;10;
64631;PMS5003;58358;50.936;0.246;2023-04-01T12:20:54;9;9;
64631;PMS5003;58358;50.936;0.246;2023-04-01T12:23:22;13;12;
64631;PMS5003;58358;50.936;0.246;2023-04-01T12:25:48;9;7;
64631;PMS5003;58358;50.936;0.246;2023-04-01T12:28:10;8;7;
64631;PMS5003;58358;50.936;0.246;2023-04-01T12:30:39;12;10;
64631;PMS5003;58358;50.936;0.246;2023-04-01T12:35:26;8;8;
64631;PMS5003;58358;50.936;0.246;2023-04-01T12:37:55;7;6;
64631;PMS5003;58358;50.936;0.246;2023-04-01T12:40:23;9;7;
64631;PMS5003;58358;50.936;0.246;2023-04-01T12:42:47;7;6;
64631;PMS5003;58358;50.936;0.246;2023-04-01T12:45:17;8;8;
64631;PMS5003;58358;50.936;0.246;2023-04-01T12:47:41;9;9;
64631;PMS5003;58358;50.936;0.246;2023-04-01T12:52:30;7;6;
64631;PMS5003;58358;50.936;0.246;2023-04-01T12:57:21;10;9;
64631;PMS5003;58358;50.936;0.246;2023-04-01T12:59:46;8;8;
64631;PMS5003;58358;50.936;0.246;2023-04-01T13:02:11;8;8;
64631;PMS5003;58358;50.936;0.246;2023-04-01T13:04:39;9;7;
64631;PMS5003;58358;50.936;0.246;2023-04-01T13:07:07;8;8;
64631;PMS5003;58358;50.936;0.246;2023-04-01T13:09:29;8;8;
64631;PMS5003;58358;50.936;0.246;2023-04-01T13:11:55;8;7;
64631;PMS5003;58358;50.936;0.246;2023-04-01T13:16:42;10;10;
64631;PMS5003;58358;50.936;0.246;2023-04-01T13:19:09;7;7;
64631;PMS5003;58358;50.936;0.246;2023-04-01T13:21:35;10;8;
64631;PMS5003;58358;50.936;0.246;2023-04-01T13:24:00;12;11;
64631;PMS5003;58358;50.936;0.246;2023-04-01T13:26:26;9;9;
64631;PMS5003;58358;50.936;0.246;2023-04-01T13:28:52;9;9;
64631;PMS5003;58358;50.936;0.246;2023-04-01T13:31:23;10;10;
64631;PMS5003;58358;50.936;0.246;2023-04-01T13:33:42;10;9;
64631;PMS5003;58358;50.936;0.246;2023-04-01T13:36:11;12;11;
64631;PMS5003;58358;50.936;0.246;2023-04-01T13:38:40;8;8;
64631;PMS5003;58358;50.936;0.246;2023-04-01T13:40:59;8;8;
64631;PMS5003;58358;50.936;0.246;2023-04-01T13:43:24;9;9;
64631;PMS5003;58358;50.936;0.246;2023-04-01T13:45:57;9;9;
64631;PMS5003;58358;50.936;0.246;2023-04-01T13:48:23;11;10;
64631;PMS5003;58358;50.936;0.246;2023-04-01T13:50:46;8;8;
64631;PMS5003;58358;50.936;0.246;2023-04-01T13:55:35;5;5;
64631;PMS5003;58358;50.936;0.246;2023-04-01T13:58:04;8;8;
64631;PMS5003;58358;50.936;0.246;2023-04-01T14:00:26;8;8;
64631;PMS5003;58358;50.936;0.246;2023-04-01T14:02:51;5;5;
64631;PMS5003;58358;50.936;0.246;2023-04-01T14:05:19;8;6;
64631;PMS5003;58358;50.936;0.246;2023-04-01T14:07:46;11;11;
64631;PMS5003;58358;50.936;0.246;2023-04-01T14:10:07;10;10;
64631;PMS5003;58358;50.936;0.246;2023-04-01T14:12:33;10;10;
64631;PMS5003;58358;50.936;0.246;2023-04-01T14:15:03;5;5;
64631;PMS5003;58358;50.936;0.246;2023-04-01T14:17:29;8;8;
64631;PMS5003;58358;50.936;0.246;2023-04-01T14:19:51;6;5;
64631;PMS5003;58358;50.936;0.246;2023-04-01T14:22:17;8;7;
64631;PMS5003;58358;50.936;0.246;2023-04-01T14:24:43;8;8;
64631;PMS5003;58358;50.936;0.246;2023-04-01T14:27:09;6;6;
64631;PMS5003;58358;50.936;0.246;2023-04-01T14:29:32;9;9;
64631;PMS5003;58358;50.936;0.246;2023-04-01T14:31:59;8;8;
64631;PMS5003;58358;50.936;0.246;2023-04-01T14:34:24;7;7;
64631;PMS5003;58358;50.936;0.246;2023-04-01T14:36:53;10;9;
64631;PMS5003;58358;50.936;0.246;2023-04-01T14:39:15;10;8;
64631;PMS5003;58358;50.936;0.246;2023-04-01T14:41:41;7;7;
64631;PMS5003;58358;50.936;0.246;2023-04-01T14:46:35;4;4;
64631;PMS5003;58358;50.936;0.246;2023-04-01T14:48:56;6;5;
64631;PMS5003;58358;50.936;0.246;2023-04-01T14:51:22;5;5;
64631;PMS5003;58358;50.936;0.246;2023-04-01T14:53:52;4;4;
64631;PMS5003;58358;50.936;0.246;2023-04-01T14:56:12;5;4;
64631;PMS5003;58358;50.936;0.246;2023-04-01T14:58:41;4;4;
64631;PMS5003;58358;50.936;0.246;2023-04-01T15:01:09;5;5;
64631;PMS5003;58358;50.936;0.246;2023-04-01T15:03:30;6;6;
64631;PMS5003;58358;50.936;0.246;2023-04-01T15:05:56;10;7;
64631;PMS5003;58358;50.936;0.246;2023-04-01T15:08:22;6;6;
64631;PMS5003;58358;50.936;0.246;2023-04-01T15:10:58;6;6;
64631;PMS5003;58358;50.936;0.246;2023-04-01T15:13:13;4;4;
64631;PMS5003;58358;50.936;0.246;2023-04-01T15:15:40;3;3;
64631;PMS5003;58358;50.936;0.246;2023-04-01T15:18:06;5;5;
64631;PMS5003;58358;50.936;0.246;2023-04-01T15:20:33;9;6;
64631;PMS5003;58358;50.936;0.246;2023-04-01T15:22:59;5;5;
64631;PMS5003;58358;50.936;0.246;2023-04-01T15:25:28;5;5;
64631;PMS5003;58358;50.936;0.246;2023-04-01T15:27:47;4;4;
64631;PMS5003;58358;50.936;0.246;2023-04-01T15:30:15;6;6;
64631;PMS5003;58358;50.936;0.246;2023-04-01T15:32:40;6;6;
64631;PMS5003;58358;50.936;0.246;2023-04-01T15:35:07;6;5;
64631;PMS5003;58358;50.936;0.246;2023-04-01T15:37:33;6;6;
64631;PMS5003;58358;50.936;0.246;2023-04-01T15:39:56;4;4;
64631;PMS5003;58358;50.936;0.246;2023-04-01T15:42:27;7;6;
64631;PMS5003;58358;50.936;0.246;2023-04-01T15:44:50;7;7;
64631;PMS5003;58358;50.936;0.246;2023-04-01T15:49:38;6;6;
64631;PMS5003;58358;50.936;0.246;2023-04-01T15:52:06;7;6;
64631;PMS5003;58358;50.936;0.246;2023-04-01T15:54:32;6;6;
64631;PMS5003;58358;50.936;0.246;2023-04-01T15:59:22;5;5;
64631;PMS5003;58358;50.936;0.246;2023-04-01T16:01:47;3;3;
64631;PMS5003;58358;50.936;0.246;2023-04-01T16:04:16;6;5;
64631;PMS5003;58358;50.936;0.246;2023-04-01T16:06:45;4;4;
64631;PMS5003;58358;50.936;0.246;2023-04-01T16:09:06;5;4;
64631;PMS5003;58358;50.936;0.246;2023-04-01T16:11:29;6;6;
64631;PMS5003;58358;50.936;0.246;2023-04-01T16:13:55;8;6;
64631;PMS5003;58358;50.936;0.246;2023-04-01T16:16:23;5;5;
64631;PMS5003;58358;50.936;0.246;2023-04-01T16:18:49;6;5;
64631;PMS5003;58358;50.936;0.246;2023-04-01T16:21:12;4;4;
64631;PMS5003;58358;50.936;0.246;2023-04-01T16:23:37;5;4;
64631;PMS5003;58358;50.936;0.246;2023-04-01T16:26:05;4;4;
64631;PMS5003;58358;50.936;0.246;2023-04-01T16:28:29;6;6;
64631;PMS5003;58358;50.936;0.246;2023-04-01T16:30:55;5;5;
64631;PMS5003;58358;50.936;0.246;2023-04-01T16:33:21;7;7;
64631;PMS5003;58358;50.936;0.246;2023-04-01T16:35:46;4;4;
64631;PMS5003;58358;50.936;0.246;2023-04-01T16:38:13;6;6;
64631;PMS5003;58358;50.936;0.246;2023-04-01T16:40:39;6;6;
64631;PMS5003;58358;50.936;0.246;2023-04-01T16:43:06;10;9;
64631;PMS5003;58358;50.936;0.246;2023-04-01T16:45:31;7;7;
64631;PMS5003;58358;50.936;0.246;2023-04-01T16:47:54;7;7;
64631;PMS5003;58358;50.936;0.246;2023-04-01T16:50:20;9;9;
64631;PMS5003;58358;50.936;0.246;2023-04-01T16:52:51;9;9;
64631;PMS5003;58358;50.936;0.246;2023-04-01T16:55:14;7;7;
64631;PMS5003;58358;50.936;0.246;2023-04-01T16:57:37;7;7;
64631;PMS5003;58358;50.936;0.246;2023-04-01T17:00:09;9;9;
64631;PMS5003;58358;50.936;0.246;2023-04-01T17:02:28;8;8;
64631;PMS5003;58358;50.936;0.246;2023-04-01T17:04:56;9;8;
64631;PMS5003;58358;50.936;0.246;2023-04-01T17:07:21;7;7;
64631;PMS5003;58358;50.936;0.246;2023-04-01T17:09:50;8;8;
64631;PMS5003;58358;50.936;0.246;2023-04-01T17:12:12;7;7;
64631;PMS5003;58358;50.936;0.246;2023-04-01T17:14:37;9;9;
64631;PMS5003;58358;50.936;0.246;2023-04-01T17:17:07;9;9;
64631;PMS5003;58358;50.936;0.246;2023-04-01T17:19:32;16;13;
64631;PMS5003;58358;50.936;0.246;2023-04-01T17:21:56;10;10;
64631;PMS5003;58358;50.936;0.246;2023-04-01T17:24:24;9;8;
64631;PMS5003;58358;50.936;0.246;2023-04-01T17:26:45;9;9;
64631;PMS5003;58358;50.936;0.246;2023-04-01T17:29:13;10;9;
64631;PMS5003;58358;50.936;0.246;2023-04-01T17:31:41;13;12;
64631;PMS5003;58358;50.936;0.246;2023-04-01T17:34:05;8;8;
64631;PMS5003;58358;50.936;0.246;2023-04-01T17:36:32;17;15;
64631;PMS5003;58358;50.936;0.246;2023-04-01T17:38:59;10;10;
64631;PMS5003;58358;50.936;0.246;2023-04-01T17:41:21;12;12;
64631;PMS5003;58358;50.936;0.246;2023-04-01T17:43:45;15;15;
64631;PMS5003;58358;50.936;0.246;2023-04-01T17:46:11;11;11;
64631;PMS5003;58358;50.936;0.246;2023-04-01T17:48:37;19;17;
64631;PMS5003;58358;50.936;0.246;2023-04-01T17:51:05;18;15;
64631;PMS5003;58358;50.936;0.246;2023-04-01T17:53:29;10;10;
64631;PMS5003;58358;50.936;0.246;2023-04-01T17:55:58;11;11;
64631;PMS5003;58358;50.936;0.246;2023-04-01T17:58:18;11;10;
64631;PMS5003;58358;50.936;0.246;2023-04-01T18:00:47;22;12;
64631;PMS5003;58358;50.936;0.246;2023-04-01T18:03:12;10;10;